Sunday, June 24, 2018, 8:43 PM EDT
Back to Local

KHUL, Houlton Int'l Airport

Location: Houlton, ME, United States Lat: 46.117
Local Time: 8:43 PM EDT ( 0:43 GMT) Lon: -67.8
Time Zone: US/Eastern Elev: 492 ft

Show me the last for .
Show Decoded

2018-06-24 19:53 METAR KHUL 242353Z AUTO 01009KT 10SM FEW060 BKN100 18/11 A2982 RMK AO2 SLP098
                 T01780106 10222 20178 51020 =
2018-06-24 18:53 METAR KHUL 242253Z AUTO 36009KT 10SM SCT050 SCT090 20/12 A2980 RMK AO2 SLP092
                 T02000117 =
2018-06-24 17:53 METAR KHUL 242153Z AUTO 36010KT 10SM OVC095 21/12 A2978 RMK AO2 SLP085 T02110117
                 =
2018-06-24 16:53 METAR KHUL 242053Z AUTO 34003KT 10SM FEW047 BKN095 OVC110 22/13 A2976 RMK AO2
                 SLP078 T02220133 53003 =
2018-06-24 15:53 METAR KHUL 241953Z AUTO 03005KT 10SM OVC100 22/14 A2976 RMK AO2 SLP076 T02170139
                 =
2018-06-24 14:53 METAR KHUL 241853Z AUTO 36007KT 10SM FEW036 OVC090 22/14 A2975 RMK AO2 SLP076
                 T02220144 =
2018-06-24 13:53 METAR KHUL 241753Z AUTO 34007KT 10SM OVC095 22/14 A2975 RMK AO2 SLP075 60000
                 T02170139 10217 20139 53004 =
2018-06-24 12:53 METAR KHUL 241653Z AUTO 25006KT 10SM OVC090 21/16 A2975 RMK AO2 SLP074 T02060156
                 =
2018-06-24 11:53 METAR KHUL 241553Z AUTO 29007KT 10SM OVC080 19/15 A2974 RMK AO2 SLP071 T01940150
                 =
2018-06-24 10:53 METAR KHUL 241453Z AUTO 24006KT 10SM FEW060 OVC075 18/14 A2974 RMK AO2 SLP071
                 60000 T01780139 51007 =
2018-06-24 09:53 METAR KHUL 241353Z AUTO 21004KT 10SM BKN065 OVC080 17/13 A2973 RMK AO2 SLP069
                 T01670133 =
2018-06-24 08:53 METAR KHUL 241253Z AUTO 00000KT 10SM BKN060 OVC110 16/13 A2973 RMK AO2 RAB40E53
                 SLP068 P0000 T01560128 =
2018-06-24 07:53 METAR KHUL 241153Z AUTO 22004KT 10SM SCT050 OVC110 14/12 A2972 RMK AO2 SLP064
                 60002 70007 T01390122 10144 20106 57003 =
2018-06-24 06:53 METAR KHUL 241053Z AUTO 20004KT 10SM BKN050 OVC085 12/11 A2972 RMK AO2 SLP066
                 T01220111 =
2018-06-24 05:53 METAR KHUL 240953Z AUTO 20003KT 10SM BKN080 OVC095 11/11 A2972 RMK AO2 RAE09
                 SLP065 P0000 T01110106 =
2018-06-24 04:53 METAR KHUL 240853Z AUTO 20003KT 8SM -RA FEW075 SCT090 OVC110 11/10 A2973 RMK AO2
                 SLP067 P0001 60002 T01060100 56016 =
2018-06-24 03:53 METAR KHUL 240753Z AUTO 19003KT 10SM -RA BKN080 OVC100 11/11 A2974 RMK AO2
                 RAE05B46 SLP072 P0001 T01060106 =
2018-06-24 02:53 METAR KHUL 240653Z AUTO 00000KT 10SM -RA BKN090 OVC110 11/10 A2976 RMK AO2 RAB24
                 SLP077 P0000 T01060100 =
2018-06-24 01:53 METAR KHUL 240553Z AUTO 19004KT 10SM FEW100 OVC120 11/10 A2978 RMK AO2 RAB21E31
                 SLP084 P0000 60005 T01110100 10172 20111 58012 =
2018-06-24 00:53 METAR KHUL 240453Z AUTO 18005KT 10SM SCT070 OVC080 12/10 A2979 RMK AO2 RAE53
                 SLP087 P0003 T01170100 402330111 =
2018-06-23 23:53 METAR KHUL 240353Z AUTO 19005KT 10SM -RA OVC070 12/09 A2981 RMK AO2 SLP094 P0001
                 T01220094 =
2018-06-23 22:53 METAR KHUL 240253Z AUTO 19007KT 10SM -RA FEW075 OVC100 14/10 A2981 RMK AO2 RAB20
                 SLP096 P0001 60001 T01390100 57007 =
2018-06-23 21:53 METAR KHUL 240153Z AUTO VRB04KT 10SM OVC085 16/09 A2982 RMK AO2 SLP098 T01610094
                 =
2018-06-23 20:53 METAR KHUL 240053Z AUTO 18004KT 10SM OVC100 17/09 A2982 RMK AO2 RAB33E43 SLP099
                 P0000 T01670094 =

Support USWX by starting your Amazon purchase here.